sensor_id;sensor_type;location;lat;lon;timestamp;P1;durP1;ratioP1;P2;durP2;ratioP2
17618;SDS011;8928;51.678;6.074;2023-05-07T00:00:49;15.83;;;10.50;;
17618;SDS011;8928;51.678;6.074;2023-05-07T00:03:36;15.50;;;10.33;;
17618;SDS011;8928;51.678;6.074;2023-05-07T00:06:25;15.60;;;10.10;;
17618;SDS011;8928;51.678;6.074;2023-05-07T00:09:14;17.30;;;11.17;;
17618;SDS011;8928;51.678;6.074;2023-05-07T00:12:01;17.67;;;10.80;;
17618;SDS011;8928;51.678;6.074;2023-05-07T00:14:49;17.10;;;10.93;;
17618;SDS011;8928;51.678;6.074;2023-05-07T00:17:36;17.60;;;11.13;;
17618;SDS011;8928;51.678;6.074;2023-05-07T00:20:23;21.10;;;12.13;;
17618;SDS011;8928;51.678;6.074;2023-05-07T00:23:12;19.67;;;11.63;;
17618;SDS011;8928;51.678;6.074;2023-05-07T00:25:59;22.77;;;12.47;;
17618;SDS011;8928;51.678;6.074;2023-05-07T00:28:46;19.80;;;12.17;;
17618;SDS011;8928;51.678;6.074;2023-05-07T00:31:33;19.07;;;12.30;;
17618;SDS011;8928;51.678;6.074;2023-05-07T00:34:20;23.30;;;13.03;;
17618;SDS011;8928;51.678;6.074;2023-05-07T00:37:07;21.07;;;14.07;;
17618;SDS011;8928;51.678;6.074;2023-05-07T00:39:56;22.77;;;15.53;;
17618;SDS011;8928;51.678;6.074;2023-05-07T00:42:43;20.77;;;13.77;;
17618;SDS011;8928;51.678;6.074;2023-05-07T00:45:32;23.33;;;13.73;;
17618;SDS011;8928;51.678;6.074;2023-05-07T00:48:20;23.57;;;14.50;;
17618;SDS011;8928;51.678;6.074;2023-05-07T00:51:09;23.30;;;15.57;;
17618;SDS011;8928;51.678;6.074;2023-05-07T00:53:57;28.53;;;16.53;;
17618;SDS011;8928;51.678;6.074;2023-05-07T00:56:46;24.13;;;16.13;;
17618;SDS011;8928;51.678;6.074;2023-05-07T00:59:33;24.27;;;16.33;;
17618;SDS011;8928;51.678;6.074;2023-05-07T01:02:21;25.60;;;17.17;;
17618;SDS011;8928;51.678;6.074;2023-05-07T01:05:09;28.43;;;19.70;;
17618;SDS011;8928;51.678;6.074;2023-05-07T01:07:58;28.37;;;19.03;;
17618;SDS011;8928;51.678;6.074;2023-05-07T01:10:45;29.63;;;18.90;;
17618;SDS011;8928;51.678;6.074;2023-05-07T01:13:34;29.47;;;19.87;;
17618;SDS011;8928;51.678;6.074;2023-05-07T01:16:22;34.67;;;19.93;;
17618;SDS011;8928;51.678;6.074;2023-05-07T01:19:09;32.37;;;19.90;;
17618;SDS011;8928;51.678;6.074;2023-05-07T01:22:02;31.17;;;20.60;;
17618;SDS011;8928;51.678;6.074;2023-05-07T01:24:54;31.43;;;20.90;;
17618;SDS011;8928;51.678;6.074;2023-05-07T01:27:41;32.13;;;19.93;;
17618;SDS011;8928;51.678;6.074;2023-05-07T01:30:28;32.90;;;21.53;;
17618;SDS011;8928;51.678;6.074;2023-05-07T01:33:18;31.63;;;21.07;;
17618;SDS011;8928;51.678;6.074;2023-05-07T01:36:07;37.57;;;21.50;;
17618;SDS011;8928;51.678;6.074;2023-05-07T01:38:55;35.30;;;21.67;;
17618;SDS011;8928;51.678;6.074;2023-05-07T01:41:45;34.33;;;20.30;;
17618;SDS011;8928;51.678;6.074;2023-05-07T01:44:33;35.00;;;21.40;;
17618;SDS011;8928;51.678;6.074;2023-05-07T01:47:20;32.43;;;20.83;;
17618;SDS011;8928;51.678;6.074;2023-05-07T01:50:08;36.10;;;22.67;;
17618;SDS011;8928;51.678;6.074;2023-05-07T01:52:55;32.47;;;21.07;;
17618;SDS011;8928;51.678;6.074;2023-05-07T01:55:42;35.27;;;22.60;;
17618;SDS011;8928;51.678;6.074;2023-05-07T01:58:31;35.83;;;22.50;;
17618;SDS011;8928;51.678;6.074;2023-05-07T02:01:19;33.43;;;22.63;;
17618;SDS011;8928;51.678;6.074;2023-05-07T02:04:06;38.97;;;23.47;;
17618;SDS011;8928;51.678;6.074;2023-05-07T02:06:53;35.80;;;23.10;;
17618;SDS011;8928;51.678;6.074;2023-05-07T02:09:41;33.53;;;22.80;;
17618;SDS011;8928;51.678;6.074;2023-05-07T02:12:28;32.90;;;21.30;;
17618;SDS011;8928;51.678;6.074;2023-05-07T02:15:16;36.43;;;22.03;;
17618;SDS011;8928;51.678;6.074;2023-05-07T02:18:04;33.87;;;22.33;;
17618;SDS011;8928;51.678;6.074;2023-05-07T02:20:52;34.90;;;20.90;;
17618;SDS011;8928;51.678;6.074;2023-05-07T02:23:39;32.83;;;21.53;;
17618;SDS011;8928;51.678;6.074;2023-05-07T02:26:26;38.37;;;23.47;;
17618;SDS011;8928;51.678;6.074;2023-05-07T02:29:13;37.87;;;23.27;;
17618;SDS011;8928;51.678;6.074;2023-05-07T02:32:02;34.93;;;23.13;;
17618;SDS011;8928;51.678;6.074;2023-05-07T02:34:49;36.70;;;23.77;;
17618;SDS011;8928;51.678;6.074;2023-05-07T02:37:37;40.80;;;24.07;;
17618;SDS011;8928;51.678;6.074;2023-05-07T02:40:24;37.37;;;23.97;;
17618;SDS011;8928;51.678;6.074;2023-05-07T02:43:11;31.57;;;21.40;;
17618;SDS011;8928;51.678;6.074;2023-05-07T02:46:02;37.17;;;24.10;;
17618;SDS011;8928;51.678;6.074;2023-05-07T02:48:51;36.20;;;24.50;;
17618;SDS011;8928;51.678;6.074;2023-05-07T02:51:38;38.50;;;24.93;;
17618;SDS011;8928;51.678;6.074;2023-05-07T02:54:25;39.67;;;25.37;;
17618;SDS011;8928;51.678;6.074;2023-05-07T02:57:12;38.83;;;25.87;;
17618;SDS011;8928;51.678;6.074;2023-05-07T02:59:59;41.63;;;25.70;;
17618;SDS011;8928;51.678;6.074;2023-05-07T03:02:56;41.93;;;27.03;;
17618;SDS011;8928;51.678;6.074;2023-05-07T03:05:44;44.37;;;26.40;;
17618;SDS011;8928;51.678;6.074;2023-05-07T03:08:31;39.90;;;26.60;;
17618;SDS011;8928;51.678;6.074;2023-05-07T03:11:18;41.37;;;26.07;;
17618;SDS011;8928;51.678;6.074;2023-05-07T03:14:06;42.17;;;26.30;;
17618;SDS011;8928;51.678;6.074;2023-05-07T03:16:53;35.90;;;24.90;;
17618;SDS011;8928;51.678;6.074;2023-05-07T03:19:40;41.10;;;25.23;;
17618;SDS011;8928;51.678;6.074;2023-05-07T03:22:28;35.60;;;23.83;;
17618;SDS011;8928;51.678;6.074;2023-05-07T03:25:15;39.10;;;26.23;;
17618;SDS011;8928;51.678;6.074;2023-05-07T03:28:02;41.87;;;26.67;;
17618;SDS011;8928;51.678;6.074;2023-05-07T03:30:50;43.33;;;26.97;;
17618;SDS011;8928;51.678;6.074;2023-05-07T03:33:38;43.13;;;26.50;;
17618;SDS011;8928;51.678;6.074;2023-05-07T03:36:36;48.27;;;28.37;;
17618;SDS011;8928;51.678;6.074;2023-05-07T03:39:24;46.17;;;28.20;;
17618;SDS011;8928;51.678;6.074;2023-05-07T03:42:11;44.50;;;28.20;;
17618;SDS011;8928;51.678;6.074;2023-05-07T03:44:58;42.43;;;27.00;;
17618;SDS011;8928;51.678;6.074;2023-05-07T03:47:45;45.97;;;27.80;;
17618;SDS011;8928;51.678;6.074;2023-05-07T03:50:32;46.20;;;29.23;;
17618;SDS011;8928;51.678;6.074;2023-05-07T03:53:19;47.43;;;28.73;;
17618;SDS011;8928;51.678;6.074;2023-05-07T03:56:08;48.40;;;28.80;;
17618;SDS011;8928;51.678;6.074;2023-05-07T03:58:55;45.63;;;28.50;;
17618;SDS011;8928;51.678;6.074;2023-05-07T04:01:43;44.37;;;28.63;;
17618;SDS011;8928;51.678;6.074;2023-05-07T04:04:30;44.53;;;28.57;;
17618;SDS011;8928;51.678;6.074;2023-05-07T04:07:18;43.83;;;28.93;;
17618;SDS011;8928;51.678;6.074;2023-05-07T04:10:05;43.40;;;28.03;;
17618;SDS011;8928;51.678;6.074;2023-05-07T04:12:54;42.57;;;26.50;;
17618;SDS011;8928;51.678;6.074;2023-05-07T04:15:42;42.07;;;26.50;;
17618;SDS011;8928;51.678;6.074;2023-05-07T04:18:30;43.70;;;27.37;;
17618;SDS011;8928;51.678;6.074;2023-05-07T04:21:18;48.83;;;27.03;;
17618;SDS011;8928;51.678;6.074;2023-05-07T04:24:06;47.03;;;27.00;;
17618;SDS011;8928;51.678;6.074;2023-05-07T04:26:53;42.27;;;27.23;;
17618;SDS011;8928;51.678;6.074;2023-05-07T04:29:42;42.23;;;27.50;;
17618;SDS011;8928;51.678;6.074;2023-05-07T04:32:32;47.43;;;28.83;;
17618;SDS011;8928;51.678;6.074;2023-05-07T04:35:19;45.27;;;29.03;;
17618;SDS011;8928;51.678;6.074;2023-05-07T04:38:06;46.87;;;27.83;;
17618;SDS011;8928;51.678;6.074;2023-05-07T04:40:53;50.83;;;30.93;;
17618;SDS011;8928;51.678;6.074;2023-05-07T04:43:41;42.37;;;26.83;;
17618;SDS011;8928;51.678;6.074;2023-05-07T04:46:29;51.13;;;32.00;;
17618;SDS011;8928;51.678;6.074;2023-05-07T04:49:16;55.57;;;34.07;;
17618;SDS011;8928;51.678;6.074;2023-05-07T04:52:03;56.70;;;35.43;;
17618;SDS011;8928;51.678;6.074;2023-05-07T04:54:58;53.00;;;33.87;;
17618;SDS011;8928;51.678;6.074;2023-05-07T04:57:35;53.60;;;33.33;;
17618;SDS011;8928;51.678;6.074;2023-05-07T05:00:23;48.47;;;30.97;;
17618;SDS011;8928;51.678;6.074;2023-05-07T05:03:11;44.77;;;28.23;;
17618;SDS011;8928;51.678;6.074;2023-05-07T05:05:58;42.87;;;26.53;;
17618;SDS011;8928;51.678;6.074;2023-05-07T05:08:45;37.03;;;24.67;;
17618;SDS011;8928;51.678;6.074;2023-05-07T05:11:32;38.77;;;24.73;;
17618;SDS011;8928;51.678;6.074;2023-05-07T05:14:19;39.00;;;24.03;;
17618;SDS011;8928;51.678;6.074;2023-05-07T05:17:06;40.07;;;24.23;;
17618;SDS011;8928;51.678;6.074;2023-05-07T05:19:55;39.40;;;23.93;;
17618;SDS011;8928;51.678;6.074;2023-05-07T05:22:42;33.73;;;22.97;;
17618;SDS011;8928;51.678;6.074;2023-05-07T05:25:29;35.40;;;23.27;;
17618;SDS011;8928;51.678;6.074;2023-05-07T05:28:16;34.43;;;23.53;;
17618;SDS011;8928;51.678;6.074;2023-05-07T05:31:04;37.50;;;23.40;;
17618;SDS011;8928;51.678;6.074;2023-05-07T05:33:51;35.47;;;23.17;;
17618;SDS011;8928;51.678;6.074;2023-05-07T05:36:40;34.00;;;22.93;;
17618;SDS011;8928;51.678;6.074;2023-05-07T05:39:27;32.27;;;22.73;;
17618;SDS011;8928;51.678;6.074;2023-05-07T05:42:14;38.30;;;23.90;;
17618;SDS011;8928;51.678;6.074;2023-05-07T05:45:01;35.23;;;23.73;;
17618;SDS011;8928;51.678;6.074;2023-05-07T05:47:48;36.10;;;23.43;;
17618;SDS011;8928;51.678;6.074;2023-05-07T05:50:35;37.37;;;22.80;;
17618;SDS011;8928;51.678;6.074;2023-05-07T05:53:24;33.77;;;22.90;;
17618;SDS011;8928;51.678;6.074;2023-05-07T05:56:11;32.53;;;22.57;;
17618;SDS011;8928;51.678;6.074;2023-05-07T05:58:58;30.53;;;21.87;;
17618;SDS011;8928;51.678;6.074;2023-05-07T06:01:45;30.63;;;20.67;;
17618;SDS011;8928;51.678;6.074;2023-05-07T06:04:32;28.27;;;19.80;;
17618;SDS011;8928;51.678;6.074;2023-05-07T06:07:19;29.67;;;19.63;;
17618;SDS011;8928;51.678;6.074;2023-05-07T06:10:08;27.30;;;18.63;;
17618;SDS011;8928;51.678;6.074;2023-05-07T06:12:56;26.67;;;18.57;;
17618;SDS011;8928;51.678;6.074;2023-05-07T06:15:43;27.00;;;17.87;;
17618;SDS011;8928;51.678;6.074;2023-05-07T06:18:30;24.53;;;18.17;;
17618;SDS011;8928;51.678;6.074;2023-05-07T06:21:17;24.87;;;17.53;;
17618;SDS011;8928;51.678;6.074;2023-05-07T06:24:04;24.30;;;18.23;;
17618;SDS011;8928;51.678;6.074;2023-05-07T06:26:52;24.47;;;16.90;;
17618;SDS011;8928;51.678;6.074;2023-05-07T06:29:39;25.37;;;17.60;;
17618;SDS011;8928;51.678;6.074;2023-05-07T06:32:27;25.50;;;16.37;;
17618;SDS011;8928;51.678;6.074;2023-05-07T06:35:14;23.33;;;16.93;;
17618;SDS011;8928;51.678;6.074;2023-05-07T06:38:01;23.43;;;16.83;;
17618;SDS011;8928;51.678;6.074;2023-05-07T06:40:48;31.10;;;18.00;;
17618;SDS011;8928;51.678;6.074;2023-05-07T06:43:37;25.90;;;18.57;;
17618;SDS011;8928;51.678;6.074;2023-05-07T06:46:24;26.60;;;18.27;;
17618;SDS011;8928;51.678;6.074;2023-05-07T06:49:11;28.23;;;18.88;;
17618;SDS011;8928;51.678;6.074;2023-05-07T06:51:59;25.15;;;18.65;;
17618;SDS011;8928;51.678;6.074;2023-05-07T06:54:46;24.60;;;17.27;;
17618;SDS011;8928;51.678;6.074;2023-05-07T06:57:33;27.63;;;18.58;;
17618;SDS011;8928;51.678;6.074;2023-05-07T07:00:21;27.23;;;17.67;;
17618;SDS011;8928;51.678;6.074;2023-05-07T07:03:08;24.83;;;17.15;;
17618;SDS011;8928;51.678;6.074;2023-05-07T07:05:56;24.63;;;17.77;;
17618;SDS011;8928;51.678;6.074;2023-05-07T07:08:43;21.20;;;16.23;;
17618;SDS011;8928;51.678;6.074;2023-05-07T07:11:30;21.92;;;15.98;;
17618;SDS011;8928;51.678;6.074;2023-05-07T07:14:17;22.23;;;16.17;;
17618;SDS011;8928;51.678;6.074;2023-05-07T07:17:06;20.90;;;13.90;;
17618;SDS011;8928;51.678;6.074;2023-05-07T07:19:53;19.98;;;13.68;;
17618;SDS011;8928;51.678;6.074;2023-05-07T07:22:40;18.75;;;13.35;;
17618;SDS011;8928;51.678;6.074;2023-05-07T07:25:27;17.55;;;14.00;;
17618;SDS011;8928;51.678;6.074;2023-05-07T07:28:15;24.48;;;15.43;;
17618;SDS011;8928;51.678;6.074;2023-05-07T07:31:02;22.20;;;14.88;;
17618;SDS011;8928;51.678;6.074;2023-05-07T07:33:50;20.92;;;15.20;;
17618;SDS011;8928;51.678;6.074;2023-05-07T07:36:37;19.02;;;14.02;;
17618;SDS011;8928;51.678;6.074;2023-05-07T07:39:24;16.67;;;12.73;;
17618;SDS011;8928;51.678;6.074;2023-05-07T07:42:11;16.45;;;11.70;;
17618;SDS011;8928;51.678;6.074;2023-05-07T07:44:58;18.38;;;12.18;;
17618;SDS011;8928;51.678;6.074;2023-05-07T07:47:45;16.33;;;11.60;;
17618;SDS011;8928;51.678;6.074;2023-05-07T07:50:34;14.95;;;11.38;;
17618;SDS011;8928;51.678;6.074;2023-05-07T07:53:21;18.35;;;11.85;;
17618;SDS011;8928;51.678;6.074;2023-05-07T07:56:08;17.52;;;12.07;;
17618;SDS011;8928;51.678;6.074;2023-05-07T07:58:55;14.95;;;11.25;;
17618;SDS011;8928;51.678;6.074;2023-05-07T08:01:42;15.82;;;11.52;;
17618;SDS011;8928;51.678;6.074;2023-05-07T08:04:29;17.23;;;11.60;;
17618;SDS011;8928;51.678;6.074;2023-05-07T08:07:19;14.73;;;11.32;;
17618;SDS011;8928;51.678;6.074;2023-05-07T08:10:08;13.25;;;10.25;;
17618;SDS011;8928;51.678;6.074;2023-05-07T08:12:55;17.90;;;11.98;;
17618;SDS011;8928;51.678;6.074;2023-05-07T08:15:42;13.98;;;10.65;;
17618;SDS011;8928;51.678;6.074;2023-05-07T08:18:29;19.77;;;11.32;;
17618;SDS011;8928;51.678;6.074;2023-05-07T08:21:16;15.98;;;10.63;;
17618;SDS011;8928;51.678;6.074;2023-05-07T08:24:05;15.00;;;9.57;;
17618;SDS011;8928;51.678;6.074;2023-05-07T08:26:52;14.55;;;9.40;;
17618;SDS011;8928;51.678;6.074;2023-05-07T08:29:39;14.32;;;9.98;;
17618;SDS011;8928;51.678;6.074;2023-05-07T08:32:26;14.20;;;9.43;;
17618;SDS011;8928;51.678;6.074;2023-05-07T08:35:13;13.73;;;8.80;;
17618;SDS011;8928;51.678;6.074;2023-05-07T08:38:00;11.40;;;8.38;;
17618;SDS011;8928;51.678;6.074;2023-05-07T08:40:49;11.68;;;8.20;;
17618;SDS011;8928;51.678;6.074;2023-05-07T08:43:36;13.27;;;8.13;;
17618;SDS011;8928;51.678;6.074;2023-05-07T08:46:27;13.93;;;7.88;;
17618;SDS011;8928;51.678;6.074;2023-05-07T08:49:17;12.90;;;7.75;;
17618;SDS011;8928;51.678;6.074;2023-05-07T08:52:04;11.18;;;7.90;;
17618;SDS011;8928;51.678;6.074;2023-05-07T08:54:51;13.52;;;8.23;;
17618;SDS011;8928;51.678;6.074;2023-05-07T08:57:40;11.63;;;7.60;;
17618;SDS011;8928;51.678;6.074;2023-05-07T09:00:27;14.68;;;7.85;;
17618;SDS011;8928;51.678;6.074;2023-05-07T09:03:14;14.43;;;8.20;;
17618;SDS011;8928;51.678;6.074;2023-05-07T09:06:01;15.88;;;8.57;;
17618;SDS011;8928;51.678;6.074;2023-05-07T09:08:49;14.02;;;8.35;;
17618;SDS011;8928;51.678;6.074;2023-05-07T09:11:37;10.43;;;7.45;;
17618;SDS011;8928;51.678;6.074;2023-05-07T09:14:25;10.73;;;7.10;;
17618;SDS011;8928;51.678;6.074;2023-05-07T09:17:12;12.15;;;7.13;;
17618;SDS011;8928;51.678;6.074;2023-05-07T09:20:02;13.00;;;7.43;;
17618;SDS011;8928;51.678;6.074;2023-05-07T09:22:50;10.05;;;7.93;;
17618;SDS011;8928;51.678;6.074;2023-05-07T09:25:37;11.75;;;7.70;;
17618;SDS011;8928;51.678;6.074;2023-05-07T09:28:24;9.85;;;7.13;;
17618;SDS011;8928;51.678;6.074;2023-05-07T09:31:13;12.52;;;7.00;;
17618;SDS011;8928;51.678;6.074;2023-05-07T09:34:00;9.90;;;6.95;;
17618;SDS011;8928;51.678;6.074;2023-05-07T09:36:47;10.32;;;7.15;;
17618;SDS011;8928;51.678;6.074;2023-05-07T09:39:40;10.38;;;7.18;;
17618;SDS011;8928;51.678;6.074;2023-05-07T09:42:28;9.88;;;6.88;;
17618;SDS011;8928;51.678;6.074;2023-05-07T09:45:15;9.52;;;6.20;;
17618;SDS011;8928;51.678;6.074;2023-05-07T09:48:08;10.32;;;6.18;;
17618;SDS011;8928;51.678;6.074;2023-05-07T09:50:56;9.63;;;5.82;;
17618;SDS011;8928;51.678;6.074;2023-05-07T09:53:48;8.77;;;5.70;;
17618;SDS011;8928;51.678;6.074;2023-05-07T09:56:36;11.68;;;6.40;;
17618;SDS011;8928;51.678;6.074;2023-05-07T09:59:27;9.68;;;6.53;;
17618;SDS011;8928;51.678;6.074;2023-05-07T10:02:14;9.73;;;6.05;;
17618;SDS011;8928;51.678;6.074;2023-05-07T10:05:03;9.10;;;5.95;;
17618;SDS011;8928;51.678;6.074;2023-05-07T10:07:51;9.63;;;5.95;;
17618;SDS011;8928;51.678;6.074;2023-05-07T10:10:39;12.30;;;5.90;;
17618;SDS011;8928;51.678;6.074;2023-05-07T10:13:27;10.20;;;6.43;;
17618;SDS011;8928;51.678;6.074;2023-05-07T10:16:15;8.27;;;5.68;;
17618;SDS011;8928;51.678;6.074;2023-05-07T10:19:02;7.40;;;4.97;;
17618;SDS011;8928;51.678;6.074;2023-05-07T10:21:54;9.52;;;6.03;;
17618;SDS011;8928;51.678;6.074;2023-05-07T10:24:42;9.57;;;5.78;;
17618;SDS011;8928;51.678;6.074;2023-05-07T10:27:33;6.65;;;4.90;;
17618;SDS011;8928;51.678;6.074;2023-05-07T10:30:23;8.02;;;5.40;;
17618;SDS011;8928;51.678;6.074;2023-05-07T10:33:17;9.18;;;5.00;;
17618;SDS011;8928;51.678;6.074;2023-05-07T10:36:08;8.73;;;4.65;;
17618;SDS011;8928;51.678;6.074;2023-05-07T10:38:57;8.73;;;4.97;;
17618;SDS011;8928;51.678;6.074;2023-05-07T10:41:44;7.88;;;4.10;;
17618;SDS011;8928;51.678;6.074;2023-05-07T10:44:31;7.03;;;4.00;;
17618;SDS011;8928;51.678;6.074;2023-05-07T10:47:18;5.40;;;3.67;;
17618;SDS011;8928;51.678;6.074;2023-05-07T10:50:20;6.20;;;3.13;;
17618;SDS011;8928;51.678;6.074;2023-05-07T10:53:21;6.05;;;3.58;;
17618;SDS011;8928;51.678;6.074;2023-05-07T10:56:25;4.50;;;3.17;;
17618;SDS011;8928;51.678;6.074;2023-05-07T10:59:34;7.97;;;3.13;;
17618;SDS011;8928;51.678;6.074;2023-05-07T11:08:56;6.22;;;3.50;;
17618;SDS011;8928;51.678;6.074;2023-05-07T11:11:45;5.70;;;3.40;;
17618;SDS011;8928;51.678;6.074;2023-05-07T11:17:51;7.22;;;3.45;;
17618;SDS011;8928;51.678;6.074;2023-05-07T11:20:49;6.47;;;3.20;;
17618;SDS011;8928;51.678;6.074;2023-05-07T11:26:57;5.40;;;3.17;;
17618;SDS011;8928;51.678;6.074;2023-05-07T11:29:46;8.23;;;3.28;;
17618;SDS011;8928;51.678;6.074;2023-05-07T11:32:33;5.72;;;3.50;;
17618;SDS011;8928;51.678;6.074;2023-05-07T11:35:22;6.95;;;3.20;;
17618;SDS011;8928;51.678;6.074;2023-05-07T11:38:09;5.78;;;2.83;;
17618;SDS011;8928;51.678;6.074;2023-05-07T11:40:58;8.68;;;2.63;;
17618;SDS011;8928;51.678;6.074;2023-05-07T11:43:58;7.20;;;2.53;;
17618;SDS011;8928;51.678;6.074;2023-05-07T11:46:45;6.47;;;2.47;;
17618;SDS011;8928;51.678;6.074;2023-05-07T11:49:33;7.75;;;3.05;;
17618;SDS011;8928;51.678;6.074;2023-05-07T11:52:21;4.78;;;2.92;;
17618;SDS011;8928;51.678;6.074;2023-05-07T11:55:09;5.50;;;2.65;;
17618;SDS011;8928;51.678;6.074;2023-05-07T11:57:56;7.63;;;2.60;;
17618;SDS011;8928;51.678;6.074;2023-05-07T12:00:49;5.78;;;2.60;;
17618;SDS011;8928;51.678;6.074;2023-05-07T12:03:36;5.30;;;2.40;;
17618;SDS011;8928;51.678;6.074;2023-05-07T12:06:23;5.35;;;2.30;;
17618;SDS011;8928;51.678;6.074;2023-05-07T12:09:11;5.60;;;2.28;;
17618;SDS011;8928;51.678;6.074;2023-05-07T12:12:02;4.40;;;2.13;;
17618;SDS011;8928;51.678;6.074;2023-05-07T12:14:50;5.82;;;2.15;;
17618;SDS011;8928;51.678;6.074;2023-05-07T12:17:38;4.72;;;2.10;;
17618;SDS011;8928;51.678;6.074;2023-05-07T12:20:26;7.10;;;2.35;;
17618;SDS011;8928;51.678;6.074;2023-05-07T12:23:13;4.72;;;2.03;;
17618;SDS011;8928;51.678;6.074;2023-05-07T12:26:01;3.88;;;2.20;;
17618;SDS011;8928;51.678;6.074;2023-05-07T12:28:48;5.70;;;2.20;;
17618;SDS011;8928;51.678;6.074;2023-05-07T12:31:35;6.13;;;2.45;;
17618;SDS011;8928;51.678;6.074;2023-05-07T12:34:24;3.30;;;2.00;;
17618;SDS011;8928;51.678;6.074;2023-05-07T12:37:11;6.25;;;2.20;;
17618;SDS011;8928;51.678;6.074;2023-05-07T12:40:05;5.38;;;2.35;;
17618;SDS011;8928;51.678;6.074;2023-05-07T12:42:53;4.28;;;2.08;;
17618;SDS011;8928;51.678;6.074;2023-05-07T12:45:41;6.07;;;2.10;;
17618;SDS011;8928;51.678;6.074;2023-05-07T12:48:28;4.45;;;2.25;;
17618;SDS011;8928;51.678;6.074;2023-05-07T12:51:17;7.30;;;2.45;;
17618;SDS011;8928;51.678;6.074;2023-05-07T12:54:04;6.80;;;2.42;;
17618;SDS011;8928;51.678;6.074;2023-05-07T12:56:51;4.97;;;2.40;;
17618;SDS011;8928;51.678;6.074;2023-05-07T12:59:46;4.47;;;2.40;;
17618;SDS011;8928;51.678;6.074;2023-05-07T13:02:34;4.45;;;2.20;;
17618;SDS011;8928;51.678;6.074;2023-05-07T13:05:23;5.88;;;2.10;;
17618;SDS011;8928;51.678;6.074;2023-05-07T13:08:12;4.63;;;2.08;;
17618;SDS011;8928;51.678;6.074;2023-05-07T13:11:09;5.15;;;2.20;;
17618;SDS011;8928;51.678;6.074;2023-05-07T13:13:57;4.18;;;2.40;;
17618;SDS011;8928;51.678;6.074;2023-05-07T13:16:44;5.80;;;2.08;;
17618;SDS011;8928;51.678;6.074;2023-05-07T13:19:31;3.83;;;2.38;;
17618;SDS011;8928;51.678;6.074;2023-05-07T13:22:18;6.75;;;3.00;;
17618;SDS011;8928;51.678;6.074;2023-05-07T13:25:07;5.93;;;2.90;;
17618;SDS011;8928;51.678;6.074;2023-05-07T13:27:56;5.85;;;3.22;;
17618;SDS011;8928;51.678;6.074;2023-05-07T13:30:43;6.22;;;3.40;;
17618;SDS011;8928;51.678;6.074;2023-05-07T13:33:30;5.82;;;3.50;;
17618;SDS011;8928;51.678;6.074;2023-05-07T13:36:17;8.48;;;3.33;;
17618;SDS011;8928;51.678;6.074;2023-05-07T13:39:05;7.15;;;3.72;;
17618;SDS011;8928;51.678;6.074;2023-05-07T13:41:53;6.72;;;3.42;;
17618;SDS011;8928;51.678;6.074;2023-05-07T13:44:40;9.45;;;3.03;;
17618;SDS011;8928;51.678;6.074;2023-05-07T13:47:29;5.70;;;3.47;;
17618;SDS011;8928;51.678;6.074;2023-05-07T13:50:16;5.97;;;3.50;;
17618;SDS011;8928;51.678;6.074;2023-05-07T13:53:03;5.53;;;3.33;;
17618;SDS011;8928;51.678;6.074;2023-05-07T13:55:50;11.52;;;4.38;;
17618;SDS011;8928;51.678;6.074;2023-05-07T13:58:38;7.78;;;4.25;;
17618;SDS011;8928;51.678;6.074;2023-05-07T14:01:25;6.90;;;4.10;;
17618;SDS011;8928;51.678;6.074;2023-05-07T14:04:12;9.27;;;4.20;;
17618;SDS011;8928;51.678;6.074;2023-05-07T14:06:59;8.95;;;4.82;;
17618;SDS011;8928;51.678;6.074;2023-05-07T14:09:46;7.80;;;4.95;;
17618;SDS011;8928;51.678;6.074;2023-05-07T14:12:34;6.65;;;4.30;;
17618;SDS011;8928;51.678;6.074;2023-05-07T14:15:22;7.15;;;3.92;;
17618;SDS011;8928;51.678;6.074;2023-05-07T14:18:09;8.20;;;4.75;;
17618;SDS011;8928;51.678;6.074;2023-05-07T14:20:56;9.20;;;5.70;;
17618;SDS011;8928;51.678;6.074;2023-05-07T14:23:43;8.13;;;5.32;;
17618;SDS011;8928;51.678;6.074;2023-05-07T14:26:30;9.98;;;5.28;;
17618;SDS011;8928;51.678;6.074;2023-05-07T14:29:17;15.55;;;7.63;;
17618;SDS011;8928;51.678;6.074;2023-05-07T14:32:06;5.35;;;2.85;;
17618;SDS011;8928;51.678;6.074;2023-05-07T14:34:53;8.15;;;3.20;;
17618;SDS011;8928;51.678;6.074;2023-05-07T14:37:40;6.75;;;2.80;;
17618;SDS011;8928;51.678;6.074;2023-05-07T14:40:27;4.57;;;2.40;;
17618;SDS011;8928;51.678;6.074;2023-05-07T14:43:14;3.43;;;1.90;;
17618;SDS011;8928;51.678;6.074;2023-05-07T14:46:01;2.93;;;1.90;;
17618;SDS011;8928;51.678;6.074;2023-05-07T14:48:50;4.33;;;2.20;;
17618;SDS011;8928;51.678;6.074;2023-05-07T14:51:37;5.13;;;2.20;;
17618;SDS011;8928;51.678;6.074;2023-05-07T14:54:24;7.27;;;2.50;;
17618;SDS011;8928;51.678;6.074;2023-05-07T14:57:11;7.87;;;2.90;;
17618;SDS011;8928;51.678;6.074;2023-05-07T15:00:01;11.00;;;3.10;;
17618;SDS011;8928;51.678;6.074;2023-05-07T15:02:50;10.73;;;3.50;;
17618;SDS011;8928;51.678;6.074;2023-05-07T15:05:38;6.30;;;2.90;;
17618;SDS011;8928;51.678;6.074;2023-05-07T15:08:26;13.57;;;2.97;;
17618;SDS011;8928;51.678;6.074;2023-05-07T15:11:13;13.70;;;3.33;;
17618;SDS011;8928;51.678;6.074;2023-05-07T15:14:00;5.63;;;3.30;;
17618;SDS011;8928;51.678;6.074;2023-05-07T15:16:47;7.77;;;2.80;;
17618;SDS011;8928;51.678;6.074;2023-05-07T15:19:35;8.83;;;3.33;;
17618;SDS011;8928;51.678;6.074;2023-05-07T15:22:23;8.30;;;3.33;;
17618;SDS011;8928;51.678;6.074;2023-05-07T15:25:10;12.70;;;3.60;;
17618;SDS011;8928;51.678;6.074;2023-05-07T15:27:57;8.60;;;3.20;;
17618;SDS011;8928;51.678;6.074;2023-05-07T15:30:44;6.63;;;3.20;;
17618;SDS011;8928;51.678;6.074;2023-05-07T15:33:31;9.50;;;3.60;;
17618;SDS011;8928;51.678;6.074;2023-05-07T15:36:19;7.23;;;3.47;;
17618;SDS011;8928;51.678;6.074;2023-05-07T15:39:07;6.50;;;3.43;;
17618;SDS011;8928;51.678;6.074;2023-05-07T15:41:55;11.00;;;4.97;;
17618;SDS011;8928;51.678;6.074;2023-05-07T15:44:42;11.07;;;6.30;;
17618;SDS011;8928;51.678;6.074;2023-05-07T15:47:29;13.53;;;8.33;;
17618;SDS011;8928;51.678;6.074;2023-05-07T15:50:20;12.37;;;7.33;;
17618;SDS011;8928;51.678;6.074;2023-05-07T15:53:07;12.50;;;5.10;;
17618;SDS011;8928;51.678;6.074;2023-05-07T15:55:56;9.97;;;3.20;;
17618;SDS011;8928;51.678;6.074;2023-05-07T15:58:43;7.13;;;2.90;;
17618;SDS011;8928;51.678;6.074;2023-05-07T16:01:30;5.43;;;2.70;;
17618;SDS011;8928;51.678;6.074;2023-05-07T16:04:17;4.27;;;2.40;;
17618;SDS011;8928;51.678;6.074;2023-05-07T16:07:05;4.20;;;2.33;;
17618;SDS011;8928;51.678;6.074;2023-05-07T16:09:52;4.57;;;2.20;;
17618;SDS011;8928;51.678;6.074;2023-05-07T16:12:40;6.07;;;2.30;;
17618;SDS011;8928;51.678;6.074;2023-05-07T16:15:27;4.10;;;2.27;;
17618;SDS011;8928;51.678;6.074;2023-05-07T16:18:14;6.90;;;2.57;;
17618;SDS011;8928;51.678;6.074;2023-05-07T16:21:01;4.97;;;2.30;;
17618;SDS011;8928;51.678;6.074;2023-05-07T16:23:49;5.47;;;2.27;;
17618;SDS011;8928;51.678;6.074;2023-05-07T16:26:36;5.55;;;1.92;;
17618;SDS011;8928;51.678;6.074;2023-05-07T16:29:24;4.57;;;1.58;;
17618;SDS011;8928;51.678;6.074;2023-05-07T16:32:11;3.55;;;1.52;;
17618;SDS011;8928;51.678;6.074;2023-05-07T16:34:58;2.83;;;1.73;;
17618;SDS011;8928;51.678;6.074;2023-05-07T16:37:45;4.72;;;1.90;;
17618;SDS011;8928;51.678;6.074;2023-05-07T16:40:32;4.85;;;1.80;;
17618;SDS011;8928;51.678;6.074;2023-05-07T16:43:23;3.63;;;1.83;;
17618;SDS011;8928;51.678;6.074;2023-05-07T16:46:11;5.80;;;2.13;;
17618;SDS011;8928;51.678;6.074;2023-05-07T16:48:58;3.95;;;1.98;;
17618;SDS011;8928;51.678;6.074;2023-05-07T16:51:45;6.68;;;1.65;;
17618;SDS011;8928;51.678;6.074;2023-05-07T16:54:34;3.58;;;2.05;;
17618;SDS011;8928;51.678;6.074;2023-05-07T16:57:21;2.88;;;1.80;;
17618;SDS011;8928;51.678;6.074;2023-05-07T17:00:09;5.00;;;1.58;;
17618;SDS011;8928;51.678;6.074;2023-05-07T17:02:58;5.75;;;1.70;;